• Join FlightAware (Why Join?)
  • Login
  • US Flag 
03:44PM EDT


 

Airport Tracker/Info


-or-


 

Live Flight TrackerFlight Track Log ✈ FIN666 ✈ 05-Mar-2014 ✈ EKCH / CPH - EFHK / HEL

Flight Track Log - Related Links

Times and Time Zones

All times are in EST time to prevent confusion due to time zone crossing. See the FIN666 flight status page for this flight to view local times or setup timezone preferences in your user account.

Time Position Orientation Groundspeed Altitude Reporting Facility
EST Latitude Longitude Course Direction KTS MPH feet Rate Location/Type
07:25AM 55.8966 13.2332 49° Northeast  Level Estimated
07:26AM 55.9658 13.3788 50° Northeast  Level Estimated
07:27AM 56.0387 13.5332 50° Northeast  Level Estimated
07:28AM 56.1115 13.6881 50° Northeast  Level Estimated
07:29AM 56.1841 13.8437 50° Northeast  Level Estimated
07:30AM 56.2564 13.9998 50° Northeast  Level Estimated
07:31AM 56.3286 14.1565 50° Northeast  Level Estimated
07:32AM 56.4006 14.3138 50° Northeast  Level Estimated
07:33AM 56.4723 14.4717 51° Northeast  Level Estimated
07:34AM 56.5439 14.6302 51° Northeast  Level Estimated
07:35AM 56.6153 14.7893 51° Northeast  Level Estimated
07:36AM 56.6864 14.9490 51° Northeast  Level Estimated
07:37AM 56.7574 15.1093 51° Northeast  Level Estimated
07:38AM 56.8282 15.2703 51° Northeast  Level Estimated
07:39AM 56.8987 15.4318 51° Northeast  Level Estimated
07:40AM 56.9690 15.5939 51° Northeast  Level Estimated
07:41AM 57.0392 15.7566 52° Northeast  Level Estimated
07:42AM 57.1091 15.9200 52° Northeast  Level Estimated
07:43AM 57.1788 16.0840 52° Northeast  Level Estimated
07:44AM 57.2482 16.2486 52° Northeast  Level Estimated
07:45AM 57.3175 16.4138 52° Northeast  Level Estimated
07:46AM 57.3866 16.5796 52° Northeast  Level Estimated
07:47AM 57.4554 16.7461 52° Northeast  Level Estimated
07:48AM 57.5240 16.9132 53° Northeast  Level Estimated
07:49AM 57.5924 17.0809 53° Northeast  Level Estimated
07:50AM 57.6606 17.2493 53° Northeast  Level Estimated
07:51AM 57.7285 17.4182 53° Northeast  Level Estimated
07:52AM 57.7962 17.5879 53° Northeast  Level Estimated
07:53AM 57.8637 17.7581 53° Northeast  Level Estimated
07:54AM 57.9310 17.9290 53° Northeast  Level Estimated
07:55AM 57.9980 18.1005 54° Northeast  Level Estimated
07:56AM 58.0648 18.2727 54° Northeast  Level Estimated
07:57AM 58.1314 18.4456 54° Northeast  Level Estimated
07:58AM 58.1977 18.6190 54° Northeast  Level Estimated
07:59AM 58.2638 18.7931 54° Northeast  Level Estimated
08:00AM 58.3297 18.9679 54° Northeast  Level Estimated
08:01AM 58.3953 19.1433 54° Northeast  Level Estimated
08:02AM 58.4607 19.3194 55° Northeast  Level Estimated
08:03AM 58.5258 19.4961 55° Northeast  Level Estimated
08:04AM 58.5907 19.6735 55° Northeast  Level Estimated
08:05AM 58.6553 19.8515 55° Northeast  Level Estimated
08:06AM 58.7197 20.0302 55° Northeast  Level Estimated
08:07AM 58.7839 20.2096 55° Northeast  Level Estimated
08:08AM 58.8478 20.3896 55° Northeast  Level Estimated
08:09AM 58.9114 20.5703 56° Northeast  Level Estimated
08:10AM 58.9748 20.7516 56° Northeast  Level Estimated
08:11AM 59.0380 20.9336 56° Northeast  Level Estimated
08:12AM 59.1009 21.1163 56° Northeast  Level Estimated
08:13AM 59.1635 21.2997 56° Northeast  Level Estimated
08:14AM 59.2259 21.4837 56° Northeast  Level Estimated
08:15AM 59.2880 21.6684 57° Northeast  Level Estimated
08:16AM 59.3498 21.8538 57° Northeast  Level Estimated
08:17AM 59.4114 22.0398 57° Northeast  Level Estimated
08:18AM 59.4727 22.2266 57° Northeast  Level Estimated
08:19AM 59.5338 22.4140 57° Northeast  Level Estimated
08:20AM 59.5946 22.6021 57° Northeast  Level Estimated
08:21AM 59.6551 22.7908 58° Northeast  Level Estimated
08:22AM 59.7153 22.9803 58° Northeast  Level Estimated
08:23AM 59.7753 23.1704 58° Northeast  Level Estimated
08:24AM 59.8350 23.3612 58° Northeast  Level Estimated
08:25AM 59.8944 23.5527 58° Northeast  Level Estimated
08:26AM 59.9535 23.7449 58° Northeast  Level Estimated
08:27AM 60.0124 23.9377 59° Northeast  Level Estimated
08:28AM 60.0709 24.1313 59° Northeast  Level Estimated
08:29AM 60.1292 24.3255 59° Northeast  Level Estimated
08:30AM 60.1872 24.5204 59° Northeast  Level Estimated
08:31AM 60.2449 24.7160 59° Northeast  Level Estimated
08:32AM 60.3024 24.9123 59° Northeast  Level Estimated
08:33AM 60.3172 24.9633 60° Northeast  Level Estimated
08:34AM 60.3172 24.9633 North  Level Estimated
08:35AM 60.3172 24.9633 North  Level Estimated
08:36AM 60.3172 24.9633 North  Level Estimated
08:37AM 60.3172 24.9633 North  Level Estimated
08:38AM 60.3172 24.9633 North  Level Estimated
08:39AM 60.3172 24.9633 North  Level Estimated
08:40AM 60.3172 24.9633 North  Level Estimated
08:41AM 60.3172 24.9633 North  Level Estimated
08:42AM 60.3172 24.9633 North  Level Estimated
08:43AM 60.3172 24.9633 North  Level Estimated
08:44AM 60.3172 24.9633 North  Level Estimated
08:45AM 60.3172 24.9633 North  Level Estimated
08:46AM 60.3172 24.9633 North  Level Estimated
08:47AM 60.3172 24.9633 North  Level Estimated